Sangita — V3TR4 — position and weather

sailwx.info

Track history (hours):
 
Tides and Currents Weather Stations Pressure Air Temp Water Temp Dewpoint Dewpoint Depression Visibility Wind Speed Wind Dir Waves Ship Positions

Sangita

Last reported at 2017-Nov-19 16:32 UTC. Time now 2017-Nov-22 11:08 UTC.
Position N 46°16' E 030°54'.

Length 154 m; draft 5 m.

Type: Cargo ship. MMSI: 312983000.

Date/timePositionNaut miles runAvg speedWind from/ knotsBaromVisibWave heightAir tempDewpointWater temp
2017-Nov-19 16:32N 46°16' E 030°54'311.4
2017-Nov-19 16:15N 46°19' E 030°55'511.3
2017-Nov-19 15:50N 46°24' E 030°55'410.8
2017-Nov-19 15:30N 46°28' E 030°55'26 8.2
2017-Nov-19 12:21N 46°35' E 031°31'3 9.1
2017-Nov-19 12:00N 46°35' E 031°36'5 9.0
2017-Nov-19 11:26N 46°36' E 031°43'4 8.9
2017-Nov-19 11:01N 46°36' E 031°49'4 8.7
2017-Nov-19 10:31N 46°38' E 031°54'4 8.5
2017-Nov-19 10:01N 46°42' E 031°56'4 8.0
2017-Nov-19 09:30N 46°46' E 031°54'4 8.3
2017-Nov-19 09:00N 46°50' E 031°55'5 9.2
2017-Nov-19 08:30N 46°53' E 031°60'3 6.5
2017-Nov-19 08:00N 46°56' E 032°01'1 1.6
2017-Nov-19 07:29N 46°57' E 032°00'0 0.0
2017-Nov-19 06:59N 46°57' E 032°00'0 0.0
2017-Nov-19 06:29N 46°57' E 032°00'0 0.0
2017-Nov-19 05:57N 46°57' E 032°00'0 0.0
2017-Nov-19 05:27N 46°57' E 032°00'0 0.0
2017-Nov-19 04:57N 46°57' E 032°00'0 0.0
2017-Nov-19 04:27N 46°57' E 032°00'0 0.0
2017-Nov-19 02:51N 46°57' E 032°00'0 0.0
2017-Nov-19 02:27N 46°57' E 032°00'0 0.0
2017-Nov-19 01:57N 46°57' E 032°00'0 0.0
2017-Nov-19 01:21N 46°57' E 032°00'0 0.0
2017-Nov-19 00:57N 46°57' E 032°00'0 0.0
2017-Nov-19 00:27N 46°57' E 032°00'0 0.0
2017-Nov-18 23:51N 46°57' E 032°00'0 0.0
2017-Nov-18 23:21N 46°57' E 032°00'0 0.0
2017-Nov-18 22:39N 46°57' E 032°00'0 0.0
2017-Nov-18 22:27N 46°57' E 032°00'0 0.0
2017-Nov-18 21:57N 46°57' E 032°00'0 0.0
2017-Nov-18 21:27N 46°57' E 032°00'0 0.1
2017-Nov-18 20:57N 46°57' E 032°00'0 0.1
2017-Nov-18 20:27N 46°57' E 032°00'0 0.1
2017-Nov-18 20:00N 46°57' E 032°00'0 0.0
2017-Nov-18 19:28N 46°57' E 032°00'0 0.0
2017-Nov-18 18:58N 46°57' E 032°01'1 1.3
2017-Nov-18 18:28N 46°56' E 032°01'0 0.0
2017-Nov-18 17:58N 46°56' E 032°01'0 0.0
2017-Nov-18 17:28N 46°56' E 032°01'0 0.0
2017-Nov-18 16:52N 46°56' E 032°01'0 0.0
2017-Nov-18 16:28N 46°56' E 032°01'0 0.0
2017-Nov-18 15:58N 46°56' E 032°01'0 0.0
2017-Nov-18 15:28N 46°56' E 032°01'0 0.0
2017-Nov-18 14:58N 46°56' E 032°01'0 0.0
2017-Nov-18 14:28N 46°56' E 032°01'0 0.0
2017-Nov-18 13:58N 46°56' E 032°01'0 0.0
2017-Nov-18 13:28N 46°56' E 032°01'0 0.0
2017-Nov-18 12:52N 46°56' E 032°01'0 0.0
2017-Nov-18 12:28N 46°56' E 032°01'0 0.0
2017-Nov-18 11:58N 46°56' E 032°01'0 0.0
2017-Nov-18 11:25N 46°56' E 032°01'0 0.0
2017-Nov-18 10:52N 46°56' E 032°01'0 0.0
2017-Nov-18 10:25N 46°56' E 032°01'0 0.0
2017-Nov-18 09:58N 46°56' E 032°01'0 0.0
2017-Nov-18 09:25N 46°56' E 032°01'0 0.0
2017-Nov-18 08:58N 46°56' E 032°01'0 0.0
2017-Nov-18 08:28N 46°56' E 032°01'0 0.0
2017-Nov-18 07:58N 46°56' E 032°01'0 0.0
2017-Nov-18 07:28N 46°56' E 032°01'0 0.0
2017-Nov-18 06:58N 46°56' E 032°01'0 0.0
2017-Nov-18 06:28N 46°56' E 032°01'0 0.0
2017-Nov-18 05:58N 46°56' E 032°01'0 0.0
2017-Nov-18 05:28N 46°56' E 032°01'0 0.0
2017-Nov-18 04:58N 46°56' E 032°01'0 0.0
2017-Nov-18 04:25N 46°56' E 032°01'0 0.0
2017-Nov-18 03:58N 46°56' E 032°01'0 0.0
2017-Nov-18 03:25N 46°56' E 032°01'0 0.0
2017-Nov-18 02:58N 46°56' E 032°01'0 0.0
2017-Nov-18 02:25N 46°56' E 032°01'0 0.0
2017-Nov-18 01:58N 46°56' E 032°01'0 0.0
2017-Nov-18 01:28N 46°56' E 032°01'0 0.0
2017-Nov-18 00:55N 46°56' E 032°01'0 0.0
2017-Nov-18 00:19N 46°56' E 032°01'0 0.0
2017-Nov-17 23:55N 46°56' E 032°01'0 0.0
2017-Nov-17 23:28N 46°56' E 032°01'0 0.0
2017-Nov-17 22:58N 46°56' E 032°01'0 0.0
2017-Nov-17 22:28N 46°56' E 032°01'0 0.0
2017-Nov-17 21:58N 46°56' E 032°01'0 0.0
2017-Nov-17 21:28N 46°56' E 032°01'0 0.0
2017-Nov-17 20:58N 46°56' E 032°01'0 0.0
2017-Nov-17 20:28N 46°56' E 032°01'0 0.0
2017-Nov-17 19:58N 46°56' E 032°01'0 0.0
2017-Nov-17 19:25N 46°56' E 032°01'0 0.0
2017-Nov-17 18:58N 46°56' E 032°01'0 0.0
2017-Nov-17 18:28N 46°56' E 032°01'0 0.0
2017-Nov-17 17:58N 46°56' E 032°01'0 0.0
2017-Nov-17 17:28N 46°56' E 032°01'0 0.0
2017-Nov-17 16:58N 46°56' E 032°01'0 0.0
2017-Nov-17 16:28N 46°56' E 032°01'0 0.0
2017-Nov-17 15:58N 46°56' E 032°01'0 0.0
2017-Nov-17 15:28N 46°56' E 032°01'0 0.0
2017-Nov-17 14:58N 46°56' E 032°01'0 0.0
2017-Nov-17 14:30N 46°56' E 032°01'0 0.0
2017-Nov-17 14:00N 46°56' E 032°01'0 0.0
2017-Nov-17 13:30N 46°56' E 032°01'0 0.0
2017-Nov-17 12:57N 46°56' E 032°01'0 0.0
2017-Nov-17 12:24N 46°56' E 032°01'0 0.0
2017-Nov-17 12:00N 46°56' E 032°01'0 0.0
2017-Nov-17 11:27N 46°56' E 032°01'0 0.0
2017-Nov-17 11:00N 46°56' E 032°01'0 0.0
2017-Nov-17 10:30N 46°56' E 032°01'0 0.0
2017-Nov-17 10:00N 46°56' E 032°01'0 0.0
2017-Nov-17 09:30N 46°56' E 032°01'0 0.0
2017-Nov-17 09:00N 46°56' E 032°01'0 0.0
2017-Nov-17 08:30N 46°56' E 032°01'0 0.0
2017-Nov-17 08:00N 46°56' E 032°01'0 0.0
2017-Nov-17 07:30N 46°56' E 032°01'0 0.0
2017-Nov-17 07:00N 46°56' E 032°01'0 0.0
2017-Nov-17 06:30N 46°56' E 032°01'0 0.0
2017-Nov-17 06:00N 46°56' E 032°01'0 0.0
2017-Nov-17 05:24N 46°56' E 032°01'0 0.0
2017-Nov-17 05:00N 46°56' E 032°01'0 0.0
2017-Nov-17 04:30N 46°56' E 032°01'0 0.0
2017-Nov-17 04:00N 46°56' E 032°01'0 0.0
2017-Nov-17 03:21N 46°56' E 032°01'0 0.0
2017-Nov-17 03:00N 46°56' E 032°01'0 0.0
2017-Nov-17 02:30N 46°56' E 032°01'0 0.0
2017-Nov-17 02:00N 46°56' E 032°01'0 0.0
2017-Nov-17 01:30N 46°56' E 032°01'0 0.0
2017-Nov-17 01:00N 46°56' E 032°01'0 0.0
2017-Nov-17 00:30N 46°56' E 032°01'0 0.0
2017-Nov-16 23:57N 46°56' E 032°01'0 0.0
2017-Nov-16 23:27N 46°56' E 032°01'0 0.6
2017-Nov-16 23:00N 46°56' E 032°01'0 0.1
2017-Nov-16 22:27N 46°56' E 032°01'0 0.0
2017-Nov-16 22:00N 46°56' E 032°01'0 0.0
2017-Nov-16 21:30N 46°56' E 032°01'0 0.0
2017-Nov-16 21:00N 46°56' E 032°01'0 0.0
2017-Nov-16 20:30N 46°56' E 032°01'0 0.0
2017-Nov-16 19:57N 46°56' E 032°01'0 0.0
2017-Nov-16 19:30N 46°56' E 032°01'0 0.0
2017-Nov-16 19:00N 46°56' E 032°01'0 0.0
2017-Nov-16 18:30N 46°56' E 032°01'0 0.0
2017-Nov-16 17:57N 46°56' E 032°01'0 0.0
2017-Nov-16 17:30N 46°56' E 032°01'0 0.1
2017-Nov-16 17:00N 46°56' E 032°01'0 0.0
2017-Nov-16 16:27N 46°56' E 032°01'0 0.0
2017-Nov-16 15:57N 46°56' E 032°01'0 0.0
2017-Nov-16 15:30N 46°56' E 032°01'0 0.0
2017-Nov-16 14:57N 46°56' E 032°01'0 0.0
2017-Nov-16 14:30N 46°56' E 032°01'0 0.0
2017-Nov-16 13:51N 46°56' E 032°01'0 0.0
2017-Nov-16 13:30N 46°56' E 032°01'0 0.0
2017-Nov-16 13:00N 46°56' E 032°01'0 0.0
2017-Nov-16 12:21N 46°56' E 032°01'0 0.1
2017-Nov-16 11:57N 46°56' E 032°01'0 0.0
2017-Nov-16 11:30N 46°56' E 032°01'0 0.1
2017-Nov-16 10:57N 46°56' E 032°01'0 0.1
2017-Nov-16 10:30N 46°56' E 032°01'0 0.1
2017-Nov-16 10:00N 46°56' E 032°01'0 0.0
2017-Nov-16 09:30N 46°56' E 032°01'0 0.1
2017-Nov-16 09:00N 46°56' E 032°01'0 0.1
2017-Nov-16 08:30N 46°56' E 032°01'0 0.0
2017-Nov-16 08:00N 46°56' E 032°01'0 0.0
2017-Nov-16 07:30N 46°56' E 032°01'0 0.0
2017-Nov-16 07:00N 46°56' E 032°01'0 0.0
2017-Nov-16 06:27N 46°56' E 032°01'0 0.0
2017-Nov-16 06:00N 46°56' E 032°01'0 0.0
2017-Nov-16 05:30N 46°56' E 032°01'0 0.0
2017-Nov-16 04:57N 46°56' E 032°01'0 0.0
2017-Nov-16 04:30N 46°56' E 032°01'0 0.0
2017-Nov-16 04:00N 46°56' E 032°01'0 0.0
2017-Nov-16 03:30N 46°56' E 032°01'0 0.0
2017-Nov-16 03:00N 46°56' E 032°01'0 0.0
2017-Nov-16 02:30N 46°56' E 032°01'0 0.0
2017-Nov-16 02:00N 46°56' E 032°01'0 0.0
2017-Nov-16 01:30N 46°56' E 032°01'0 0.0
2017-Nov-16 00:57N 46°56' E 032°01'0 0.0
2017-Nov-16 00:30N 46°56' E 032°01'0 0.0
2017-Nov-16 00:00N 46°56' E 032°01'0 0.0
2017-Nov-15 23:30N 46°56' E 032°01'0 0.0
2017-Nov-15 22:54N 46°56' E 032°01'0 0.0
2017-Nov-15 22:30N 46°56' E 032°01'0 0.0
2017-Nov-15 22:00N 46°56' E 032°01'0 0.0
2017-Nov-15 21:27N 46°56' E 032°01'0 0.0
2017-Nov-15 21:00N 46°56' E 032°01'0 0.0
2017-Nov-15 20:30N 46°56' E 032°01'0 0.0
2017-Nov-15 20:00N 46°56' E 032°01'0 0.0
2017-Nov-15 19:27N 46°56' E 032°01'0 0.0
2017-Nov-15 18:57N 46°56' E 032°01'0 0.0
2017-Nov-15 18:27N 46°56' E 032°01'0 0.0
2017-Nov-15 18:00N 46°56' E 032°01'0 0.0
2017-Nov-15 17:30N 46°56' E 032°01'0 0.0
2017-Nov-15 17:00N 46°56' E 032°01'0 0.0
2017-Nov-15 16:30N 46°56' E 032°01'0 0.0
2017-Nov-15 16:00N 46°56' E 032°01'0 0.0
2017-Nov-15 15:30N 46°56' E 032°01'0 0.0
2017-Nov-15 15:00N 46°56' E 032°01'0 0.0
2017-Nov-15 14:30N 46°56' E 032°01'0 0.0
2017-Nov-15 14:00N 46°56' E 032°01'0 0.0
2017-Nov-15 13:27N 46°56' E 032°01'0 0.0
2017-Nov-15 13:00N 46°56' E 032°01'0 0.0
2017-Nov-15 12:30N 46°56' E 032°01'0 0.0
2017-Nov-15 12:00N 46°56' E 032°01'0 0.0
2017-Nov-15 11:30N 46°56' E 032°01'0 0.0
2017-Nov-15 10:57N 46°56' E 032°01'0 0.0
2017-Nov-15 10:30N 46°56' E 032°01'0 0.0
2017-Nov-15 10:00N 46°56' E 032°01'0 0.1
2017-Nov-15 09:30N 46°56' E 032°01'0 0.0
2017-Nov-15 09:00N 46°56' E 032°01'0 0.0
2017-Nov-15 08:30N 46°56' E 032°01'0 0.0
2017-Nov-15 08:00N 46°56' E 032°01'0 0.0
2017-Nov-15 07:24N 46°56' E 032°01'0 0.0
2017-Nov-15 07:00N 46°56' E 032°01'0 0.0
2017-Nov-15 06:30N 46°56' E 032°01'0 0.0
2017-Nov-15 06:00N 46°56' E 032°01'0 0.0
2017-Nov-15 05:27N 46°56' E 032°01'0 0.1
2017-Nov-15 05:00N 46°56' E 032°01'0 0.0
2017-Nov-15 04:27N 46°56' E 032°01'0 0.0
2017-Nov-15 03:57N 46°56' E 032°01'0 0.1
2017-Nov-15 03:30N 46°56' E 032°01'0 0.0
2017-Nov-15 02:57N 46°56' E 032°01'0 0.0
2017-Nov-15 02:30N 46°56' E 032°01'0 0.1
2017-Nov-15 02:00N 46°56' E 032°01'0 0.0
2017-Nov-15 01:27N 46°56' E 032°01'0 0.0
2017-Nov-15 00:57N 46°56' E 032°01'0 0.0
2017-Nov-15 00:24N 46°56' E 032°01'0 0.0
2017-Nov-15 00:00N 46°56' E 032°01'0 0.0
2017-Nov-14 23:30N 46°56' E 032°01'0 0.0
2017-Nov-14 23:00N 46°56' E 032°01'0 0.0
2017-Nov-14 22:30N 46°56' E 032°01'0 0.0
2017-Nov-14 22:00N 46°56' E 032°01'0 0.0
2017-Nov-14 21:27N 46°56' E 032°01'0 0.0
2017-Nov-14 21:00N 46°56' E 032°01'0 0.0
2017-Nov-14 20:27N 46°56' E 032°01'0 0.0
2017-Nov-14 19:54N 46°56' E 032°01'0 0.0
2017-Nov-14 19:30N 46°56' E 032°01'0 0.0
2017-Nov-14 19:00N 46°56' E 032°01'0 0.0
2017-Nov-14 18:30N 46°56' E 032°01'0 0.0
2017-Nov-14 18:00N 46°56' E 032°01'0 0.0
2017-Nov-14 17:30N 46°56' E 032°01'0 0.0
2017-Nov-14 16:57N 46°56' E 032°01'0 0.0
2017-Nov-14 16:27N 46°56' E 032°01'0 0.0
2017-Nov-14 16:00N 46°56' E 032°01'0 0.0
2017-Nov-14 15:30N 46°56' E 032°01'0 0.0
2017-Nov-14 15:00N 46°56' E 032°01'0 0.0
2017-Nov-14 14:30N 46°56' E 032°01'0 0.0
2017-Nov-14 14:00N 46°56' E 032°01'0 0.0
2017-Nov-14 13:30N 46°56' E 032°01'0 0.0
2017-Nov-14 12:57N 46°56' E 032°01'0 0.0
2017-Nov-14 12:30N 46°56' E 032°01'0 0.0
2017-Nov-14 11:57N 46°56' E 032°01'0 0.0
2017-Nov-14 11:30N 46°56' E 032°01'0 0.0
2017-Nov-14 11:00N 46°56' E 032°01'0 0.0
2017-Nov-14 10:30N 46°56' E 032°01'0 0.1
2017-Nov-14 10:00N 46°56' E 032°01'2 3.9
2017-Nov-14 09:30N 46°54' E 032°01'510.4
2017-Nov-14 09:00N 46°50' E 031°56'510.2
2017-Nov-14 08:31N 46°45' E 031°54'510.0
2017-Nov-14 08:00N 46°41' E 031°56'510.3
2017-Nov-14 07:30N 46°37' E 031°51'611.0
2017-Nov-14 07:00N 46°36' E 031°43'710.9
2017-Nov-14 06:24N 46°35' E 031°34'7 9.5
2017-Nov-14 05:39N 46°35' E 031°23'1010.8
2017-Nov-14 04:43N 46°35' E 031°09'411.0
2017-Nov-14 04:23N 46°34' E 031°03'3 8.7
2017-Nov-14 04:00N 46°33' E 030°59'3 5.1
2017-Nov-14 03:28N 46°31' E 030°57'4 6.3
2017-Nov-14 02:49N 46°27' E 030°57'8 0.2
2017-Nov-12 05:30N 46°20' E 031°04'0 0.0
2017-Nov-12 05:00N 46°20' E 031°04'0 0.0
2017-Nov-12 04:12N 46°20' E 031°04'  
Track history (hours):
 
Tides and Currents Weather Stations Pressure Air Temp Water Temp Dewpoint Dewpoint Depression Visibility Wind Speed Wind Dir Waves Ship Positions

Sangita

Last reported at 2017-Nov-19 16:32 UTC. Time now 2017-Nov-22 11:08 UTC.
Position N 46°16' E 030°54'.

Length 154 m; draft 5 m.

Type: Cargo ship. MMSI: 312983000.

Date/timePositionNaut miles runAvg speedWind from/ knotsBaromVisibWave heightAir tempDewpointWater temp
2017-Nov-19 16:32N 46°16' E 030°54'311.4
2017-Nov-19 16:15N 46°19' E 030°55'511.3
2017-Nov-19 15:50N 46°24' E 030°55'410.8
2017-Nov-19 15:30N 46°28' E 030°55'26 8.2
2017-Nov-19 12:21N 46°35' E 031°31'3 9.1
2017-Nov-19 12:00N 46°35' E 031°36'5 9.0
2017-Nov-19 11:26N 46°36' E 031°43'4 8.9
2017-Nov-19 11:01N 46°36' E 031°49'4 8.7
2017-Nov-19 10:31N 46°38' E 031°54'4 8.5
2017-Nov-19 10:01N 46°42' E 031°56'4 8.0
2017-Nov-19 09:30N 46°46' E 031°54'4 8.3
2017-Nov-19 09:00N 46°50' E 031°55'5 9.2
2017-Nov-19 08:30N 46°53' E 031°60'3 6.5
2017-Nov-19 08:00N 46°56' E 032°01'1 1.6
2017-Nov-19 07:29N 46°57' E 032°00'0 0.0
2017-Nov-19 06:59N 46°57' E 032°00'0 0.0
2017-Nov-19 06:29N 46°57' E 032°00'0 0.0
2017-Nov-19 05:57N 46°57' E 032°00'0 0.0
2017-Nov-19 05:27N 46°57' E 032°00'0 0.0
2017-Nov-19 04:57N 46°57' E 032°00'0 0.0
2017-Nov-19 04:27N 46°57' E 032°00'0 0.0
2017-Nov-19 02:51N 46°57' E 032°00'0 0.0
2017-Nov-19 02:27N 46°57' E 032°00'0 0.0
2017-Nov-19 01:57N 46°57' E 032°00'0 0.0
2017-Nov-19 01:21N 46°57' E 032°00'0 0.0
2017-Nov-19 00:57N 46°57' E 032°00'0 0.0
2017-Nov-19 00:27N 46°57' E 032°00'0 0.0
2017-Nov-18 23:51N 46°57' E 032°00'0 0.0
2017-Nov-18 23:21N 46°57' E 032°00'0 0.0
2017-Nov-18 22:39N 46°57' E 032°00'0 0.0
2017-Nov-18 22:27N 46°57' E 032°00'0 0.0
2017-Nov-18 21:57N 46°57' E 032°00'0 0.0
2017-Nov-18 21:27N 46°57' E 032°00'0 0.1
2017-Nov-18 20:57N 46°57' E 032°00'0 0.1
2017-Nov-18 20:27N 46°57' E 032°00'0 0.1
2017-Nov-18 20:00N 46°57' E 032°00'0 0.0
2017-Nov-18 19:28N 46°57' E 032°00'0 0.0
2017-Nov-18 18:58N 46°57' E 032°01'1 1.3
2017-Nov-18 18:28N 46°56' E 032°01'0 0.0
2017-Nov-18 17:58N 46°56' E 032°01'0 0.0
2017-Nov-18 17:28N 46°56' E 032°01'0 0.0
2017-Nov-18 16:52N 46°56' E 032°01'0 0.0
2017-Nov-18 16:28N 46°56' E 032°01'0 0.0
2017-Nov-18 15:58N 46°56' E 032°01'0 0.0
2017-Nov-18 15:28N 46°56' E 032°01'0 0.0
2017-Nov-18 14:58N 46°56' E 032°01'0 0.0
2017-Nov-18 14:28N 46°56' E 032°01'0 0.0
2017-Nov-18 13:58N 46°56' E 032°01'0 0.0
2017-Nov-18 13:28N 46°56' E 032°01'0 0.0
2017-Nov-18 12:52N 46°56' E 032°01'0 0.0
2017-Nov-18 12:28N 46°56' E 032°01'0 0.0
2017-Nov-18 11:58N 46°56' E 032°01'0 0.0
2017-Nov-18 11:25N 46°56' E 032°01'0 0.0
2017-Nov-18 10:52N 46°56' E 032°01'0 0.0
2017-Nov-18 10:25N 46°56' E 032°01'0 0.0
2017-Nov-18 09:58N 46°56' E 032°01'0 0.0
2017-Nov-18 09:25N 46°56' E 032°01'0 0.0
2017-Nov-18 08:58N 46°56' E 032°01'0 0.0
2017-Nov-18 08:28N 46°56' E 032°01'0 0.0
2017-Nov-18 07:58N 46°56' E 032°01'0 0.0
2017-Nov-18 07:28N 46°56' E 032°01'0 0.0
2017-Nov-18 06:58N 46°56' E 032°01'0 0.0
2017-Nov-18 06:28N 46°56' E 032°01'0 0.0
2017-Nov-18 05:58N 46°56' E 032°01'0 0.0
2017-Nov-18 05:28N 46°56' E 032°01'0 0.0
2017-Nov-18 04:58N 46°56' E 032°01'0 0.0
2017-Nov-18 04:25N 46°56' E 032°01'0 0.0
2017-Nov-18 03:58N 46°56' E 032°01'0 0.0
2017-Nov-18 03:25N 46°56' E 032°01'0 0.0
2017-Nov-18 02:58N 46°56' E 032°01'0 0.0
2017-Nov-18 02:25N 46°56' E 032°01'0 0.0
2017-Nov-18 01:58N 46°56' E 032°01'0 0.0
2017-Nov-18 01:28N 46°56' E 032°01'0 0.0
2017-Nov-18 00:55N 46°56' E 032°01'0 0.0
2017-Nov-18 00:19N 46°56' E 032°01'0 0.0
2017-Nov-17 23:55N 46°56' E 032°01'0 0.0
2017-Nov-17 23:28N 46°56' E 032°01'0 0.0
2017-Nov-17 22:58N 46°56' E 032°01'0 0.0
2017-Nov-17 22:28N 46°56' E 032°01'0 0.0
2017-Nov-17 21:58N 46°56' E 032°01'0 0.0
2017-Nov-17 21:28N 46°56' E 032°01'0 0.0
2017-Nov-17 20:58N 46°56' E 032°01'0 0.0
2017-Nov-17 20:28N 46°56' E 032°01'0 0.0
2017-Nov-17 19:58N 46°56' E 032°01'0 0.0
2017-Nov-17 19:25N 46°56' E 032°01'0 0.0
2017-Nov-17 18:58N 46°56' E 032°01'0 0.0
2017-Nov-17 18:28N 46°56' E 032°01'0 0.0
2017-Nov-17 17:58N 46°56' E 032°01'0 0.0
2017-Nov-17 17:28N 46°56' E 032°01'0 0.0
2017-Nov-17 16:58N 46°56' E 032°01'0 0.0
2017-Nov-17 16:28N 46°56' E 032°01'0 0.0
2017-Nov-17 15:58N 46°56' E 032°01'0 0.0
2017-Nov-17 15:28N 46°56' E 032°01'0 0.0
2017-Nov-17 14:58N 46°56' E 032°01'0 0.0
2017-Nov-17 14:30N 46°56' E 032°01'0 0.0
2017-Nov-17 14:00N 46°56' E 032°01'0 0.0
2017-Nov-17 13:30N 46°56' E 032°01'0 0.0
2017-Nov-17 12:57N 46°56' E 032°01'0 0.0
2017-Nov-17 12:24N 46°56' E 032°01'0 0.0
2017-Nov-17 12:00N 46°56' E 032°01'0 0.0
2017-Nov-17 11:27N 46°56' E 032°01'0 0.0
2017-Nov-17 11:00N 46°56' E 032°01'0 0.0
2017-Nov-17 10:30N 46°56' E 032°01'0 0.0
2017-Nov-17 10:00N 46°56' E 032°01'0 0.0
2017-Nov-17 09:30N 46°56' E 032°01'0 0.0
2017-Nov-17 09:00N 46°56' E 032°01'0 0.0
2017-Nov-17 08:30N 46°56' E 032°01'0 0.0
2017-Nov-17 08:00N 46°56' E 032°01'0 0.0
2017-Nov-17 07:30N 46°56' E 032°01'0 0.0
2017-Nov-17 07:00N 46°56' E 032°01'0 0.0
2017-Nov-17 06:30N 46°56' E 032°01'0 0.0
2017-Nov-17 06:00N 46°56' E 032°01'0 0.0
2017-Nov-17 05:24N 46°56' E 032°01'0 0.0
2017-Nov-17 05:00N 46°56' E 032°01'0 0.0
2017-Nov-17 04:30N 46°56' E 032°01'0 0.0
2017-Nov-17 04:00N 46°56' E 032°01'0 0.0
2017-Nov-17 03:21N 46°56' E 032°01'0 0.0
2017-Nov-17 03:00N 46°56' E 032°01'0 0.0
2017-Nov-17 02:30N 46°56' E 032°01'0 0.0
2017-Nov-17 02:00N 46°56' E 032°01'0 0.0
2017-Nov-17 01:30N 46°56' E 032°01'0 0.0
2017-Nov-17 01:00N 46°56' E 032°01'0 0.0
2017-Nov-17 00:30N 46°56' E 032°01'0 0.0
2017-Nov-16 23:57N 46°56' E 032°01'0 0.0
2017-Nov-16 23:27N 46°56' E 032°01'0 0.6
2017-Nov-16 23:00N 46°56' E 032°01'0 0.1
2017-Nov-16 22:27N 46°56' E 032°01'0 0.0
2017-Nov-16 22:00N 46°56' E 032°01'0 0.0
2017-Nov-16 21:30N 46°56' E 032°01'0 0.0
2017-Nov-16 21:00N 46°56' E 032°01'0 0.0
2017-Nov-16 20:30N 46°56' E 032°01'0 0.0
2017-Nov-16 19:57N 46°56' E 032°01'0 0.0
2017-Nov-16 19:30N 46°56' E 032°01'0 0.0
2017-Nov-16 19:00N 46°56' E 032°01'0 0.0
2017-Nov-16 18:30N 46°56' E 032°01'0 0.0
2017-Nov-16 17:57N 46°56' E 032°01'0 0.0
2017-Nov-16 17:30N 46°56' E 032°01'0 0.1
2017-Nov-16 17:00N 46°56' E 032°01'0 0.0
2017-Nov-16 16:27N 46°56' E 032°01'0 0.0
2017-Nov-16 15:57N 46°56' E 032°01'0 0.0
2017-Nov-16 15:30N 46°56' E 032°01'0 0.0
2017-Nov-16 14:57N 46°56' E 032°01'0 0.0
2017-Nov-16 14:30N 46°56' E 032°01'0 0.0
2017-Nov-16 13:51N 46°56' E 032°01'0 0.0
2017-Nov-16 13:30N 46°56' E 032°01'0 0.0
2017-Nov-16 13:00N 46°56' E 032°01'0 0.0
2017-Nov-16 12:21N 46°56' E 032°01'0 0.1
2017-Nov-16 11:57N 46°56' E 032°01'0 0.0
2017-Nov-16 11:30N 46°56' E 032°01'0 0.1
2017-Nov-16 10:57N 46°56' E 032°01'0 0.1
2017-Nov-16 10:30N 46°56' E 032°01'0 0.1
2017-Nov-16 10:00N 46°56' E 032°01'0 0.0
2017-Nov-16 09:30N 46°56' E 032°01'0 0.1
2017-Nov-16 09:00N 46°56' E 032°01'0 0.1
2017-Nov-16 08:30N 46°56' E 032°01'0 0.0
2017-Nov-16 08:00N 46°56' E 032°01'0 0.0
2017-Nov-16 07:30N 46°56' E 032°01'0 0.0
2017-Nov-16 07:00N 46°56' E 032°01'0 0.0
2017-Nov-16 06:27N 46°56' E 032°01'0 0.0
2017-Nov-16 06:00N 46°56' E 032°01'0 0.0
2017-Nov-16 05:30N 46°56' E 032°01'0 0.0
2017-Nov-16 04:57N 46°56' E 032°01'0 0.0
2017-Nov-16 04:30N 46°56' E 032°01'0 0.0
2017-Nov-16 04:00N 46°56' E 032°01'0 0.0
2017-Nov-16 03:30N 46°56' E 032°01'0 0.0
2017-Nov-16 03:00N 46°56' E 032°01'0 0.0
2017-Nov-16 02:30N 46°56' E 032°01'0 0.0
2017-Nov-16 02:00N 46°56' E 032°01'0 0.0
2017-Nov-16 01:30N 46°56' E 032°01'0 0.0
2017-Nov-16 00:57N 46°56' E 032°01'0 0.0
2017-Nov-16 00:30N 46°56' E 032°01'0 0.0
2017-Nov-16 00:00N 46°56' E 032°01'0 0.0
2017-Nov-15 23:30N 46°56' E 032°01'0 0.0
2017-Nov-15 22:54N 46°56' E 032°01'0 0.0
2017-Nov-15 22:30N 46°56' E 032°01'0 0.0
2017-Nov-15 22:00N 46°56' E 032°01'0 0.0
2017-Nov-15 21:27N 46°56' E 032°01'0 0.0
2017-Nov-15 21:00N 46°56' E 032°01'0 0.0
2017-Nov-15 20:30N 46°56' E 032°01'0 0.0
2017-Nov-15 20:00N 46°56' E 032°01'0 0.0
2017-Nov-15 19:27N 46°56' E 032°01'0 0.0
2017-Nov-15 18:57N 46°56' E 032°01'0 0.0
2017-Nov-15 18:27N 46°56' E 032°01'0 0.0
2017-Nov-15 18:00N 46°56' E 032°01'0 0.0
2017-Nov-15 17:30N 46°56' E 032°01'0 0.0
2017-Nov-15 17:00N 46°56' E 032°01'0 0.0
2017-Nov-15 16:30N 46°56' E 032°01'0 0.0
2017-Nov-15 16:00N 46°56' E 032°01'0 0.0
2017-Nov-15 15:30N 46°56' E 032°01'0 0.0
2017-Nov-15 15:00N 46°56' E 032°01'0 0.0
2017-Nov-15 14:30N 46°56' E 032°01'0 0.0
2017-Nov-15 14:00N 46°56' E 032°01'0 0.0
2017-Nov-15 13:27N 46°56' E 032°01'0 0.0
2017-Nov-15 13:00N 46°56' E 032°01'0 0.0
2017-Nov-15 12:30N 46°56' E 032°01'0 0.0
2017-Nov-15 12:00N 46°56' E 032°01'0 0.0
2017-Nov-15 11:30N 46°56' E 032°01'0 0.0
2017-Nov-15 10:57N 46°56' E 032°01'0 0.0
2017-Nov-15 10:30N 46°56' E 032°01'0 0.0
2017-Nov-15 10:00N 46°56' E 032°01'0 0.1
2017-Nov-15 09:30N 46°56' E 032°01'0 0.0
2017-Nov-15 09:00N 46°56' E 032°01'0 0.0
2017-Nov-15 08:30N 46°56' E 032°01'0 0.0
2017-Nov-15 08:00N 46°56' E 032°01'0 0.0
2017-Nov-15 07:24N 46°56' E 032°01'0 0.0
2017-Nov-15 07:00N 46°56' E 032°01'0 0.0
2017-Nov-15 06:30N 46°56' E 032°01'0 0.0
2017-Nov-15 06:00N 46°56' E 032°01'0 0.0
2017-Nov-15 05:27N 46°56' E 032°01'0 0.1
2017-Nov-15 05:00N 46°56' E 032°01'0 0.0
2017-Nov-15 04:27N 46°56' E 032°01'0 0.0
2017-Nov-15 03:57N 46°56' E 032°01'0 0.1
2017-Nov-15 03:30N 46°56' E 032°01'0 0.0
2017-Nov-15 02:57N 46°56' E 032°01'0 0.0
2017-Nov-15 02:30N 46°56' E 032°01'0 0.1
2017-Nov-15 02:00N 46°56' E 032°01'0 0.0
2017-Nov-15 01:27N 46°56' E 032°01'0 0.0
2017-Nov-15 00:57N 46°56' E 032°01'0 0.0
2017-Nov-15 00:24N 46°56' E 032°01'0 0.0
2017-Nov-15 00:00N 46°56' E 032°01'0 0.0
2017-Nov-14 23:30N 46°56' E 032°01'0 0.0
2017-Nov-14 23:00N 46°56' E 032°01'0 0.0
2017-Nov-14 22:30N 46°56' E 032°01'0 0.0
2017-Nov-14 22:00N 46°56' E 032°01'0 0.0
2017-Nov-14 21:27N 46°56' E 032°01'0 0.0
2017-Nov-14 21:00N 46°56' E 032°01'0 0.0
2017-Nov-14 20:27N 46°56' E 032°01'0 0.0
2017-Nov-14 19:54N 46°56' E 032°01'0 0.0
2017-Nov-14 19:30N 46°56' E 032°01'0 0.0
2017-Nov-14 19:00N 46°56' E 032°01'0 0.0
2017-Nov-14 18:30N 46°56' E 032°01'0 0.0
2017-Nov-14 18:00N 46°56' E 032°01'0 0.0
2017-Nov-14 17:30N 46°56' E 032°01'0 0.0
2017-Nov-14 16:57N 46°56' E 032°01'0 0.0
2017-Nov-14 16:27N 46°56' E 032°01'0 0.0
2017-Nov-14 16:00N 46°56' E 032°01'0 0.0
2017-Nov-14 15:30N 46°56' E 032°01'0 0.0
2017-Nov-14 15:00N 46°56' E 032°01'0 0.0
2017-Nov-14 14:30N 46°56' E 032°01'0 0.0
2017-Nov-14 14:00N 46°56' E 032°01'0 0.0
2017-Nov-14 13:30N 46°56' E 032°01'0 0.0
2017-Nov-14 12:57N 46°56' E 032°01'0 0.0
2017-Nov-14 12:30N 46°56' E 032°01'0 0.0
2017-Nov-14 11:57N 46°56' E 032°01'0 0.0
2017-Nov-14 11:30N 46°56' E 032°01'0 0.0
2017-Nov-14 11:00N 46°56' E 032°01'0 0.0
2017-Nov-14 10:30N 46°56' E 032°01'0 0.1
2017-Nov-14 10:00N 46°56' E 032°01'2 3.9
2017-Nov-14 09:30N 46°54' E 032°01'510.4
2017-Nov-14 09:00N 46°50' E 031°56'510.2
2017-Nov-14 08:31N 46°45' E 031°54'510.0
2017-Nov-14 08:00N 46°41' E 031°56'510.3
2017-Nov-14 07:30N 46°37' E 031°51'611.0
2017-Nov-14 07:00N 46°36' E 031°43'710.9
2017-Nov-14 06:24N 46°35' E 031°34'7 9.5
2017-Nov-14 05:39N 46°35' E 031°23'1010.8
2017-Nov-14 04:43N 46°35' E 031°09'411.0
2017-Nov-14 04:23N 46°34' E 031°03'3 8.7
2017-Nov-14 04:00N 46°33' E 030°59'3 5.1
2017-Nov-14 03:28N 46°31' E 030°57'4 6.3
2017-Nov-14 02:49N 46°27' E 030°57'8 0.2
2017-Nov-12 05:30N 46°20' E 031°04'0 0.0
2017-Nov-12 05:00N 46°20' E 031°04'0 0.0
2017-Nov-12 04:12N 46°20' E 031°04'  

Dump ship's entire track history